Easton, CT

7:01 PM EST on January 26, 2015 (GMT -0500)
Sikorsky Memorial | Change Station
CLOSE
Current Station
Airport
Location: Bridgeport,
Elevation: 16 ft
Nearby Weather Stations
Active Advisory: Blizzard Warning Active Notice: Public Information Statement

Elev 16 ft 41.16 °N, 73.13 °W | Updated 18 minutes ago

Snow
Snow
25 °F
Feels Like 10 °F
N
22
Wind Variable Wind from NNE
Gusts 30 mph

Today
High -- | Low -- °F
--% Chance of Precip.
Yesterday
High -- | Low -- °F
Precip. -- in
7:09 AM 5:01 PM
Waxing Crescent, 48% visible
Pressure 29.88 in
Visibility 2.0 miles
Clouds Overcast 2900 ft
Windchill 10 °F
Dew Point 21 °F
Humidity 85%
Rainfall 0.07 in
Snow Depth Not available.
UV 0 out of 12
Pollen .10 out of 12
Air Quality Not available.
Flu Activity Not available.
SPECI KBDR 262343Z 03019G26KT 2SM -SN BR OVC029 M04/M06 A2988 RMK AO2 PK WND 03031/2254 VIS 1 R29 SE P0000 T10391061

More Conditions Fewer Conditions

Pressure 29.88 in
Visibility 2.0 miles
Clouds Overcast 2900 ft
Windchill 10 °F
Dew Point 21 °F
Humidity 85%
Rainfall 0.07 in
Snow Depth Not available.
UV 0 out of 12
Pollen .10 out of 12
Air Quality Not available.
Flu Activity Not available.
SPECI KBDR 262343Z 03019G26KT 2SM -SN BR OVC029 M04/M06 A2988 RMK AO2 PK WND 03031/2254 VIS 1 R29 SE P0000 T10391061

More Conditions Fewer Conditions

10-Day Weather Forecast

Almanac

Astronomy

Jan. 26, 2015 Rise Set
Actual Time
Civil Twilight
Nautical Twilight
Astronomical Twilight
Moon
Length of Visible Light
Length of Day
Tomorrow will be .
, % of the Moon is Illuminated

Today's Extremes

State Highs State Lows

Community

WunderPhotos

Upload Photos

1,790,412 photos uploaded!

WunderBlogs® & News

Nearby

Air Quality

  Air Quality AQ Index Pollutant
Not available.

Snow Depth

Station Depth Elevation

Earthquake Activity

City Distance Mag. Time & Date
Minimum magnitude displayed is 2.5.

Coastal Water Temperatures

Place Temperature

Nearby Weather Stations